Last 24 Hours

Modesto Jr College

15 Minute Data | America/Los_Angeles
as of 4/10/21 2:52 PM PDT
Date & Time Temp (°F) RH (%) Dew Pt (°F) Wind Spd (mph) Wind Dir (°) Wind Gust (mph) Latest Rain (In) Daily Rain (In) Daily Min Temp (°F) Daily Max Temp (°F)
4/10/21 - 1445 70.7 43 46.8 9.6 NW | 309 17.8 0.00 0.00 40.6 71.1
4/10/21 - 1430 70.1 44 47.0 10.5 NW | 318 18.8 0.00 0.00 40.6 70.6
4/10/21 - 1415 70.0 45 47.4 9.3 WNW | 300 18.4 0.00 0.00 40.6 70.6
4/10/21 - 1400 69.8 46 47.9 8.7 W | 280 16.0 0.00 0.00 40.6 70.4
4/10/21 - 1345 68.3 48 47.6 8.2 WNW | 300 15.3 0.00 0.00 40.6 69.2
4/10/21 - 1330 67.7 47 47.0 9.4 WNW | 298 16.9 0.00 0.00 40.6 68.2
4/10/21 - 1315 66.9 48 46.4 9.7 WNW | 291 18.8 0.00 0.00 40.6 67.3
4/10/21 - 1300 66.0 51 47.2 8.6 NW | 304 17.8 0.00 0.00 40.6 66.9
4/10/21 - 1245 65.6 50 46.3 8.6 WNW | 295 15.8 0.00 0.00 40.6 66.1
4/10/21 - 1230 65.0 50 46.0 10.0 WNW | 290 18.4 0.00 0.00 40.6 65.6
4/10/21 - 1215 64.3 52 46.6 8.4 NW | 306 15.3 0.00 0.00 40.6 64.9
4/10/21 - 1200 62.9 52 45.1 9.6 WNW | 301 15.1 0.00 0.00 40.6 63.7
4/10/21 - 1145 62.0 53 44.5 8.4 WNW | 302 16.0 0.00 0.00 40.6 62.7
4/10/21 - 1130 61.1 53 44.0 8.7 NW | 312 16.4 0.00 0.00 40.6 61.5
4/10/21 - 1115 60.5 53 43.5 8.3 NW | 308 15.1 0.00 0.00 40.6 61.0
4/10/21 - 1100 59.9 54 43.2 8.4 NW | 310 16.4 0.00 0.00 40.6 60.6
4/10/21 - 1045 58.7 55 42.5 9.7 NW | 305 16.2 0.00 0.00 40.6 59.5
4/10/21 - 1030 57.8 56 42.3 10.2 NW | 310 16.9 0.00 0.00 40.6 58.7
4/10/21 - 1015 57.2 56 41.8 9.8 NW | 306 16.2 0.00 0.00 40.6 57.7
4/10/21 - 1000 56.7 57 41.7 8.4 WNW | 298 15.3 0.00 0.00 40.6 57.6
4/10/21 - 0945 56.1 60 42.2 7.1 WNW | 301 13.2 0.00 0.00 40.6 56.9
4/10/21 - 0930 54.4 62 41.8 7.4 NW | 305 12.5 0.00 0.00 40.6 55.4
4/10/21 - 0915 54.1 62 41.5 8.2 NW | 307 13.6 0.00 0.00 40.6 54.6
4/10/21 - 0900 53.1 64 41.4 7.8 NW | 314 12.5 0.00 0.00 40.6 53.6
4/10/21 - 0845 53.0 64 41.2 6.6 WNW | 301 11.8 0.00 0.00 40.6 53.2
4/10/21 - 0830 51.6 68 41.5 6.3 NW | 305 10.3 0.00 0.00 40.6 52.7
4/10/21 - 0815 50.3 72 41.5 6.0 NW | 317 9.2 0.00 0.00 40.6 51.0
4/10/21 - 0800 48.6 76 41.5 5.1 NW | 314 10.1 0.00 0.00 40.6 50.0
4/10/21 - 0745 47.2 79 40.9 5.5 NNW | 333 9.9 0.00 0.00 40.6 47.8
4/10/21 - 0730 46.1 81 40.6 4.9 NNW | 334 7.7 0.00 0.00 40.6 47.5
4/10/21 - 0715 45.1 83 40.1 4.7 NNW | 333 8.1 0.00 0.00 40.6 47.5
4/10/21 - 0700 44.0 85 39.8 4.2 NNW | 340 7.7 0.00 0.00 40.6 47.5
4/10/21 - 0645 43.3 86 39.4 2.6 NNW | 331 5.0 0.00 0.00 40.6 47.5
4/10/21 - 0630 43.3 86 39.4 3.0 NW | 322 5.0 0.00 0.00 40.6 47.5
4/10/21 - 0615 42.1 89 39.2 2.8 NNW | 343 5.3 0.00 0.00 40.6 47.5
4/10/21 - 0600 41.0 89 38.1 2.1 NNW | 338 4.4 0.00 0.00 40.6 47.5
4/10/21 - 0545 41.1 89 38.1 1.1 NNW | 335 2.2 0.00 0.00 40.6 47.5
4/10/21 - 0530 41.1 88 37.8 0.8 NW | 320 2.2 0.00 0.00 40.6 47.5
4/10/21 - 0515 41.5 89 38.5 0.1 SSW | 194 0.9 0.00 0.00 40.9 47.5
4/10/21 - 0500 41.6 89 38.6 0.5 S | 185 1.5 0.00 0.00 40.9 47.5
4/10/21 - 0445 41.4 87 37.9 0.1 W | 270 0.7 0.00 0.00 41.1 47.5
4/10/21 - 0430 42.1 87 38.5 0.1 W | 261 0.9 0.00 0.00 41.6 47.5
4/10/21 - 0415 42.7 85 38.6 0.2 WSW | 253 1.3 0.00 0.00 42.2 47.5
4/10/21 - 0400 43.3 84 38.6 0.8 SW | 230 1.5 0.00 0.00 42.7 47.5
4/10/21 - 0345 44.5 80 38.7 0.3 SW | 231 2.2 0.00 0.00 43.6 47.5
4/10/21 - 0330 45.4 78 39.0 1.8 W | 270 3.9 0.00 0.00 45.0 47.5
4/10/21 - 0315 45.6 78 39.2 3.5 NW | 311 5.3 0.00 0.00 45.1 47.5
4/10/21 - 0300 45.6 78 39.1 3.6 NW | 313 6.1 0.00 0.00 45.1 47.5
4/10/21 - 0245 45.6 77 39.0 3.8 NW | 311 8.3 0.00 0.00 45.1 47.5
4/10/21 - 0230 45.4 78 38.9 2.2 NNW | 345 5.7 0.00 0.00 45.1 47.5
4/10/21 - 0215 45.6 78 39.0 3.2 NNW | 348 5.7 0.00 0.00 45.3 47.5
4/10/21 - 0200 46.2 75 38.8 3.0 NNW | 340 5.7 0.00 0.00 45.7 47.5
4/10/21 - 0145 46.4 75 38.8 3.7 N | 349 5.9 0.00 0.00 46.1 47.5
4/10/21 - 0130 46.9 73 38.8 4.4 NNW | 338 7.7 0.00 0.00 46.6 47.5
4/10/21 - 0115 47.1 73 38.8 4.1 NNW | 343 8.3 0.00 0.00 46.7 47.5
4/10/21 - 0100 47.5 71 38.6 5.7 N | 357 9.6 0.00 0.00 44.0 73.1
4/10/21 - 0045 47.1 73 38.8 5.0 N | 10 9.6 0.00 0.00 44.0 73.1
4/10/21 - 0030 47.1 73 38.9 4.3 NNE | 12 7.9 0.00 0.00 44.0 73.1
4/10/21 - 0015 47.5 72 39.0 4.7 N | 11 7.9 0.00 0.00 44.0 73.1
4/10/21 - 0000 47.9 71 38.9 5.6 NNE | 14 9.9 0.00 0.00 44.0 73.1
4/9/21 - 2345 48.4 68 38.2 5.1 NNE | 19 8.3 0.00 0.00 44.0 73.1
4/9/21 - 2330 49.0 64 37.2 4.3 NNE | 13 9.0 0.00 0.00 44.0 73.1
4/9/21 - 2315 49.7 62 37.4 4.1 N | 11 8.1 0.00 0.00 44.0 73.1
4/9/21 - 2300 51.0 58 36.6 6.5 N | 5 14.9 0.00 0.00 44.0 73.1
4/9/21 - 2245 52.0 54 35.9 7.2 N | 354 12.9 0.00 0.00 44.0 73.1
4/9/21 - 2230 50.9 60 37.4 6.0 NNW | 329 11.4 0.00 0.00 44.0 73.1
4/9/21 - 2215 51.2 60 37.9 5.8 NW | 317 10.1 0.00 0.00 44.0 73.1
4/9/21 - 2200 51.2 62 38.5 5.2 NW | 320 10.1 0.00 0.00 44.0 73.1
4/9/21 - 2145 51.8 60 38.3 5.8 NW | 318 10.5 0.00 0.00 44.0 73.1
4/9/21 - 2130 52.4 58 38.3 5.6 NW | 326 10.1 0.00 0.00 44.0 73.1
4/9/21 - 2115 53.5 55 38.0 6.7 NW | 320 12.9 0.00 0.00 44.0 73.1
4/9/21 - 2100 54.9 51 37.0 7.7 NW | 321 14.5 0.00 0.00 44.0 73.1
4/9/21 - 2045 56.4 46 35.9 7.4 NW | 321 13.6 0.00 0.00 44.0 73.1
4/9/21 - 2030 57.8 42 34.8 8.8 NW | 316 14.0 0.00 0.00 44.0 73.1
4/9/21 - 2015 58.2 42 35.0 6.5 NW | 321 12.5 0.00 0.00 44.0 73.1
4/9/21 - 2000 59.3 40 34.9 5.7 NW | 316 9.4 0.00 0.00 44.0 73.1
4/9/21 - 1945 60.7 36 33.5 4.8 NW | 312 7.9 0.00 0.00 44.0 73.1
4/9/21 - 1930 62.4 32 31.8 4.8 NW | 311 9.6 0.00 0.00 44.0 73.1
4/9/21 - 1915 64.2 28 30.4 5.5 WNW | 302 10.1 0.00 0.00 44.0 73.1
4/9/21 - 1900 65.6 28 32.0 5.5 WNW | 300 11.6 0.00 0.00 44.0 73.1
4/9/21 - 1845 66.7 27 31.9 7.4 WNW | 299 12.9 0.00 0.00 44.0 73.1
4/9/21 - 1830 67.5 28 33.1 7.7 WNW | 301 12.9 0.00 0.00 44.0 73.1
4/9/21 - 1815 68.3 29 34.6 8.5 WNW | 301 15.3 0.00 0.00 44.0 73.1
4/9/21 - 1800 70.0 30 36.9 9.6 WNW | 285 16.2 0.00 0.00 44.0 73.1
4/9/21 - 1745 71.0 32 39.5 8.6 WNW | 298 17.3 0.00 0.00 44.0 73.1
4/9/21 - 1730 72.2 34 42.1 7.6 WNW | 284 14.9 0.00 0.00 44.0 73.1
4/9/21 - 1715 72.6 35 43.2 6.4 WNW | 290 14.5 0.00 0.00 44.0 73.1
4/9/21 - 1700 72.5 35 43.4 5.5 WNW | 288 11.2 0.00 0.00 44.0 73.1
4/9/21 - 1645 72.5 34 42.8 6.7 WNW | 296 13.6 0.00 0.00 44.0 73.1
4/9/21 - 1630 72.6 34 42.3 5.9 W | 280 10.5 0.00 0.00 44.0 73.1
4/9/21 - 1615 72.5 33 41.5 6.1 WNW | 282 12.7 0.00 0.00 44.0 72.9
4/9/21 - 1600 72.4 33 41.8 7.3 W | 280 12.9 0.00 0.00 44.0 72.6
4/9/21 - 1545 72.3 34 42.3 6.3 WNW | 285 12.9 0.00 0.00 44.0 72.6
4/9/21 - 1530 72.0 35 43.1 6.6 WNW | 284 14.0 0.00 0.00 44.0 72.4
4/9/21 - 1515 71.2 36 42.5 6.2 WNW | 302 12.9 0.00 0.00 44.0 71.5
4/9/21 - 1500 70.3 38 43.2 6.6 NW | 312 12.1 0.00 0.00 44.0 71.3
4/9/21 - 1445 70.4 37 43.2 6.5 NW | 305 12.1 0.00 0.00 44.0 70.6
Max 72.6 89 47.9 10.5 - 18.8 0.00 0.00 46.7 73.1
Avg 56.1 59 40.1 5.9 - 10.8 0.00 - - -
Min 41.0 27 30.4 0.1 - 0.7 0.00 0.00 40.6 47.5
Total - - - - - - 0.00 - - -